ΕΜΥ, Εθνική Μετεωρολογική Υπηρεσία - Δελτία Καιρού, Προγνώσεις

ΑΕΡΟΝΑΥΤΙΛΙΑ

GREEK AIRPORTS CODES

TAF LGNX 220400Z 2206/2215 22015KT 9999 SCT020 BKN030 PROB30 TEMPO 2206/2209 5000 RA FEW018TCU BKN025=

EUROPEAN AIRPORTS CODES

EPWA 220630Z 13018KT 9999 OVC014 03/00 Q1021 NOSIG=